sensor_id;sensor_type;location;lat;lon;timestamp;pressure;altitude;pressure_sealevel;temperature;humidity
52855;BME280;38719;51.418;7.286;2023-02-19T00:01:46;99912.31;;;10.21;88.92
52855;BME280;38719;51.418;7.286;2023-02-19T00:04:17;99920.34;;;10.41;88.98
52855;BME280;38719;51.418;7.286;2023-02-19T00:06:45;99924.09;;;10.36;88.95
52855;BME280;38719;51.418;7.286;2023-02-19T00:09:14;99925.44;;;10.25;89.51
52855;BME280;38719;51.418;7.286;2023-02-19T00:11:42;99924.50;;;10.26;89.72
52855;BME280;38719;51.418;7.286;2023-02-19T00:14:14;99931.19;;;10.37;89.53
52855;BME280;38719;51.418;7.286;2023-02-19T00:16:42;99917.19;;;10.52;88.68
52855;BME280;38719;51.418;7.286;2023-02-19T00:19:11;99925.84;;;10.37;88.94
52855;BME280;38719;51.418;7.286;2023-02-19T00:21:41;99923.34;;;10.32;88.84
52855;BME280;38719;51.418;7.286;2023-02-19T00:24:10;99925.06;;;10.14;89.71
52855;BME280;38719;51.418;7.286;2023-02-19T00:26:39;99929.06;;;10.04;90.08
52855;BME280;38719;51.418;7.286;2023-02-19T00:29:07;99928.72;;;10.11;90.93
52855;BME280;38719;51.418;7.286;2023-02-19T00:31:35;99920.25;;;10.43;89.65
52855;BME280;38719;51.418;7.286;2023-02-19T00:34:04;99911.34;;;10.03;90.57
52855;BME280;38719;51.418;7.286;2023-02-19T00:36:33;99916.25;;;10.12;90.34
52855;BME280;38719;51.418;7.286;2023-02-19T00:39:02;99903.78;;;10.33;90.15
52855;BME280;38719;51.418;7.286;2023-02-19T00:41:30;99915.31;;;10.54;88.53
52855;BME280;38719;51.418;7.286;2023-02-19T00:43:59;99906.66;;;10.49;88.19
52855;BME280;38719;51.418;7.286;2023-02-19T00:46:29;99897.34;;;10.59;88.06
52855;BME280;38719;51.418;7.286;2023-02-19T00:48:57;99908.03;;;10.39;88.33
52855;BME280;38719;51.418;7.286;2023-02-19T00:51:27;99904.38;;;10.60;87.73
52855;BME280;38719;51.418;7.286;2023-02-19T00:53:55;99899.47;;;10.51;87.59
52855;BME280;38719;51.418;7.286;2023-02-19T00:56:24;99897.38;;;10.39;88.61
52855;BME280;38719;51.418;7.286;2023-02-19T00:58:52;99897.09;;;10.24;88.96
52855;BME280;38719;51.418;7.286;2023-02-19T01:01:20;99894.97;;;10.12;90.47
52855;BME280;38719;51.418;7.286;2023-02-19T01:03:48;99895.06;;;10.10;90.75
52855;BME280;38719;51.418;7.286;2023-02-19T01:06:18;99885.97;;;10.35;89.34
52855;BME280;38719;51.418;7.286;2023-02-19T01:08:46;99884.31;;;10.53;88.82
52855;BME280;38719;51.418;7.286;2023-02-19T01:11:14;99890.03;;;10.44;88.54
52855;BME280;38719;51.418;7.286;2023-02-19T01:13:43;99889.63;;;10.32;89.53
52855;BME280;38719;51.418;7.286;2023-02-19T01:16:13;99894.81;;;10.36;90.37
52855;BME280;38719;51.418;7.286;2023-02-19T01:18:42;99896.38;;;10.41;88.69
52855;BME280;38719;51.418;7.286;2023-02-19T01:21:12;99886.38;;;10.46;88.89
52855;BME280;38719;51.418;7.286;2023-02-19T01:23:40;99887.47;;;10.42;88.83
52855;BME280;38719;51.418;7.286;2023-02-19T01:26:11;99875.31;;;10.56;88.86
52855;BME280;38719;51.418;7.286;2023-02-19T01:28:40;99891.63;;;10.48;88.11
52855;BME280;38719;51.418;7.286;2023-02-19T01:31:11;99889.03;;;10.46;88.77
52855;BME280;38719;51.418;7.286;2023-02-19T01:33:43;99892.50;;;10.28;89.56
52855;BME280;38719;51.418;7.286;2023-02-19T01:36:11;99886.16;;;10.30;90.31
52855;BME280;38719;51.418;7.286;2023-02-19T01:38:39;99894.16;;;10.30;89.97
52855;BME280;38719;51.418;7.286;2023-02-19T01:41:08;99879.88;;;10.12;90.23
52855;BME280;38719;51.418;7.286;2023-02-19T01:43:56;99874.41;;;10.15;91.04
52855;BME280;38719;51.418;7.286;2023-02-19T01:46:26;99879.75;;;10.15;90.96
52855;BME280;38719;51.418;7.286;2023-02-19T01:48:56;99881.13;;;10.24;90.63
52855;BME280;38719;51.418;7.286;2023-02-19T01:51:25;99871.50;;;10.01;91.76
52855;BME280;38719;51.418;7.286;2023-02-19T01:53:55;99871.38;;;10.04;91.55
52855;BME280;38719;51.418;7.286;2023-02-19T01:56:24;99880.69;;;9.94;92.09
52855;BME280;38719;51.418;7.286;2023-02-19T01:58:53;99870.19;;;10.11;91.68
52855;BME280;38719;51.418;7.286;2023-02-19T02:01:20;99881.13;;;10.24;91.53
52855;BME280;38719;51.418;7.286;2023-02-19T02:03:49;99870.41;;;10.26;90.85
52855;BME280;38719;51.418;7.286;2023-02-19T02:06:20;99872.75;;;10.13;91.15
52855;BME280;38719;51.418;7.286;2023-02-19T02:08:50;99871.41;;;10.23;90.54
52855;BME280;38719;51.418;7.286;2023-02-19T02:11:37;99872.38;;;10.22;91.20
52855;BME280;38719;51.418;7.286;2023-02-19T02:14:06;99873.97;;;10.06;91.09
52855;BME280;38719;51.418;7.286;2023-02-19T02:16:41;99864.66;;;10.16;91.46
52855;BME280;38719;51.418;7.286;2023-02-19T02:19:29;99870.19;;;10.30;90.10
52855;BME280;38719;51.418;7.286;2023-02-19T02:22:02;99878.88;;;10.15;90.85
52855;BME280;38719;51.418;7.286;2023-02-19T02:25:00;99867.25;;;10.18;90.46
52855;BME280;38719;51.418;7.286;2023-02-19T02:27:42;99888.59;;;9.95;91.18
52855;BME280;38719;51.418;7.286;2023-02-19T02:30:32;99880.09;;;10.08;91.50
52855;BME280;38719;51.418;7.286;2023-02-19T02:33:12;99876.69;;;10.04;92.31
52855;BME280;38719;51.418;7.286;2023-02-19T02:35:44;99882.13;;;10.01;91.75
52855;BME280;38719;51.418;7.286;2023-02-19T02:38:14;99888.81;;;10.11;91.89
52855;BME280;38719;51.418;7.286;2023-02-19T02:40:43;99881.22;;;10.02;92.15
52855;BME280;38719;51.418;7.286;2023-02-19T02:43:12;99886.13;;;10.11;91.06
52855;BME280;38719;51.418;7.286;2023-02-19T02:45:41;99885.41;;;10.28;91.27
52855;BME280;38719;51.418;7.286;2023-02-19T02:48:14;99890.84;;;10.25;89.55
52855;BME280;38719;51.418;7.286;2023-02-19T02:50:46;99891.50;;;10.30;90.05
52855;BME280;38719;51.418;7.286;2023-02-19T02:53:20;99889.63;;;10.32;88.93
52855;BME280;38719;51.418;7.286;2023-02-19T02:56:07;99890.00;;;10.25;89.81
52855;BME280;38719;51.418;7.286;2023-02-19T02:58:36;99884.09;;;9.97;90.67
52855;BME280;38719;51.418;7.286;2023-02-19T03:01:10;99885.25;;;10.11;90.60
52855;BME280;38719;51.418;7.286;2023-02-19T03:04:00;99884.53;;;10.07;89.84
52855;BME280;38719;51.418;7.286;2023-02-19T03:06:31;99894.97;;;10.12;89.18
52855;BME280;38719;51.418;7.286;2023-02-19T03:09:06;99901.09;;;10.14;89.18
52855;BME280;38719;51.418;7.286;2023-02-19T03:11:36;99893.97;;;10.14;90.00
52855;BME280;38719;51.418;7.286;2023-02-19T03:14:29;99889.25;;;10.21;89.52
52855;BME280;38719;51.418;7.286;2023-02-19T03:17:21;99891.72;;;10.05;88.69
52855;BME280;38719;51.418;7.286;2023-02-19T03:20:10;99891.69;;;10.26;88.61
52855;BME280;38719;51.418;7.286;2023-02-19T03:22:41;99896.50;;;9.97;89.69
52855;BME280;38719;51.418;7.286;2023-02-19T03:25:12;99896.44;;;10.19;89.91
52855;BME280;38719;51.418;7.286;2023-02-19T03:28:00;99908.66;;;10.23;88.98
52855;BME280;38719;51.418;7.286;2023-02-19T03:30:32;99911.41;;;10.01;89.81
52855;BME280;38719;51.418;7.286;2023-02-19T03:33:05;99905.53;;;10.13;89.13
52855;BME280;38719;51.418;7.286;2023-02-19T03:35:37;99902.69;;;10.18;88.79
52855;BME280;38719;51.418;7.286;2023-02-19T03:38:10;99911.56;;;10.19;89.24
52855;BME280;38719;51.418;7.286;2023-02-19T03:40:50;99911.59;;;10.17;89.16
52855;BME280;38719;51.418;7.286;2023-02-19T03:43:21;99920.31;;;10.21;88.13
52855;BME280;38719;51.418;7.286;2023-02-19T03:45:57;99926.53;;;10.21;88.23
52855;BME280;38719;51.418;7.286;2023-02-19T03:48:33;99920.69;;;10.32;88.10
52855;BME280;38719;51.418;7.286;2023-02-19T03:51:10;99929.22;;;10.20;87.69
52855;BME280;38719;51.418;7.286;2023-02-19T03:53:48;99949.03;;;10.33;87.60
52855;BME280;38719;51.418;7.286;2023-02-19T03:56:23;99936.28;;;10.21;87.91
52855;BME280;38719;51.418;7.286;2023-02-19T03:58:57;99944.53;;;9.94;88.74
52855;BME280;38719;51.418;7.286;2023-02-19T04:01:29;99952.53;;;9.94;88.74
52855;BME280;38719;51.418;7.286;2023-02-19T04:04:02;99949.66;;;10.19;88.52
52855;BME280;38719;51.418;7.286;2023-02-19T04:06:32;99958.84;;;10.12;88.25
52855;BME280;38719;51.418;7.286;2023-02-19T04:09:03;99954.59;;;10.08;87.91
52855;BME280;38719;51.418;7.286;2023-02-19T04:11:34;99948.72;;;10.20;87.59
52855;BME280;38719;51.418;7.286;2023-02-19T04:14:06;99966.75;;;10.13;87.79
52855;BME280;38719;51.418;7.286;2023-02-19T04:16:38;99962.47;;;9.89;88.09
52855;BME280;38719;51.418;7.286;2023-02-19T04:19:11;99971.34;;;9.89;88.69
52855;BME280;38719;51.418;7.286;2023-02-19T04:21:40;99977.91;;;10.01;88.34
52855;BME280;38719;51.418;7.286;2023-02-19T04:24:11;99976.34;;;10.18;88.25
52855;BME280;38719;51.418;7.286;2023-02-19T04:26:40;99985.19;;;10.18;87.82
52855;BME280;38719;51.418;7.286;2023-02-19T04:29:08;99989.66;;;10.18;87.24
52855;BME280;38719;51.418;7.286;2023-02-19T04:31:37;99987.44;;;10.07;86.73
52855;BME280;38719;51.418;7.286;2023-02-19T04:34:04;99991.75;;;10.09;86.90
52855;BME280;38719;51.418;7.286;2023-02-19T04:36:33;99990.34;;;10.00;88.15
52855;BME280;38719;51.418;7.286;2023-02-19T04:39:01;99992.97;;;10.23;86.78
52855;BME280;38719;51.418;7.286;2023-02-19T04:41:29;99983.66;;;10.33;86.80
52855;BME280;38719;51.418;7.286;2023-02-19T04:43:56;99994.94;;;10.40;85.73
52855;BME280;38719;51.418;7.286;2023-02-19T04:46:24;100004.22;;;10.29;86.35
52855;BME280;38719;51.418;7.286;2023-02-19T04:48:51;100004.88;;;10.14;86.91
52855;BME280;38719;51.418;7.286;2023-02-19T04:51:19;100012.09;;;9.90;87.92
52855;BME280;38719;51.418;7.286;2023-02-19T04:53:48;100016.88;;;10.02;88.03
52855;BME280;38719;51.418;7.286;2023-02-19T04:56:16;100014.06;;;10.07;87.06
52855;BME280;38719;51.418;7.286;2023-02-19T04:58:44;100015.13;;;10.03;87.17
52855;BME280;38719;51.418;7.286;2023-02-19T05:01:12;100023.69;;;10.09;86.93
52855;BME280;38719;51.418;7.286;2023-02-19T05:03:40;100030.78;;;9.88;87.65
52855;BME280;38719;51.418;7.286;2023-02-19T05:06:10;100022.97;;;10.06;87.34
52855;BME280;38719;51.418;7.286;2023-02-19T05:08:38;100026.44;;;10.08;87.02
52855;BME280;38719;51.418;7.286;2023-02-19T05:11:09;100024.16;;;9.76;87.90
52855;BME280;38719;51.418;7.286;2023-02-19T05:13:38;100034.25;;;9.68;88.36
52855;BME280;38719;51.418;7.286;2023-02-19T05:16:08;100041.06;;;9.97;87.33
52855;BME280;38719;51.418;7.286;2023-02-19T05:18:39;100032.50;;;10.11;85.99
52855;BME280;38719;51.418;7.286;2023-02-19T05:21:07;100045.72;;;10.13;86.01
52855;BME280;38719;51.418;7.286;2023-02-19T05:23:35;100041.13;;;10.16;85.58
52855;BME280;38719;51.418;7.286;2023-02-19T05:26:04;100042.25;;;10.11;85.70
52855;BME280;38719;51.418;7.286;2023-02-19T05:28:33;100046.78;;;10.09;86.49
52855;BME280;38719;51.418;7.286;2023-02-19T05:31:04;100057.69;;;10.23;86.01
52855;BME280;38719;51.418;7.286;2023-02-19T05:33:32;100060.44;;;10.22;85.40
52855;BME280;38719;51.418;7.286;2023-02-19T05:36:04;100064.50;;;10.10;85.64
52855;BME280;38719;51.418;7.286;2023-02-19T05:38:31;100064.28;;;9.92;85.63
52855;BME280;38719;51.418;7.286;2023-02-19T05:41:06;100070.25;;;9.99;86.05
52855;BME280;38719;51.418;7.286;2023-02-19T05:43:36;100078.03;;;10.04;86.12
52855;BME280;38719;51.418;7.286;2023-02-19T05:46:04;100075.91;;;10.12;86.13
52855;BME280;38719;51.418;7.286;2023-02-19T05:48:32;100074.94;;;10.37;85.47
52855;BME280;38719;51.418;7.286;2023-02-19T05:51:01;100078.72;;;10.29;84.50
52855;BME280;38719;51.418;7.286;2023-02-19T05:53:29;100076.88;;;10.31;84.52
52855;BME280;38719;51.418;7.286;2023-02-19T05:55:57;100078.72;;;10.29;84.70
52855;BME280;38719;51.418;7.286;2023-02-19T05:58:25;100081.63;;;10.25;84.11
52855;BME280;38719;51.418;7.286;2023-02-19T06:00:54;100086.88;;;10.26;85.17
52855;BME280;38719;51.418;7.286;2023-02-19T06:03:23;100077.84;;;10.08;85.56
52855;BME280;38719;51.418;7.286;2023-02-19T06:05:50;100080.00;;;10.21;85.23
52855;BME280;38719;51.418;7.286;2023-02-19T06:08:18;100079.81;;;10.25;85.17
52855;BME280;38719;51.418;7.286;2023-02-19T06:10:45;100095.84;;;10.46;83.93
52855;BME280;38719;51.418;7.286;2023-02-19T06:13:13;100093.50;;;10.38;83.95
52855;BME280;38719;51.418;7.286;2023-02-19T06:15:43;100092.94;;;10.30;84.42
52855;BME280;38719;51.418;7.286;2023-02-19T06:18:12;100094.09;;;10.23;85.27
52855;BME280;38719;51.418;7.286;2023-02-19T06:20:39;100099.38;;;10.02;85.88
52855;BME280;38719;51.418;7.286;2023-02-19T06:23:07;100107.50;;;9.99;86.26
52855;BME280;38719;51.418;7.286;2023-02-19T06:25:34;100105.06;;;10.15;85.34
52855;BME280;38719;51.418;7.286;2023-02-19T06:28:02;100106.50;;;10.02;86.15
52855;BME280;38719;51.418;7.286;2023-02-19T06:30:30;100104.84;;;9.99;86.39
52855;BME280;38719;51.418;7.286;2023-02-19T06:32:57;100110.22;;;9.97;86.50
52855;BME280;38719;51.418;7.286;2023-02-19T06:35:26;100123.31;;;9.56;88.34
52855;BME280;38719;51.418;7.286;2023-02-19T06:37:53;100116.28;;;9.55;89.37
52855;BME280;38719;51.418;7.286;2023-02-19T06:40:21;100111.69;;;10.05;87.42
52855;BME280;38719;51.418;7.286;2023-02-19T06:42:48;100121.53;;;10.25;85.58
52855;BME280;38719;51.418;7.286;2023-02-19T06:45:16;100127.03;;;10.20;85.17
52855;BME280;38719;51.418;7.286;2023-02-19T06:47:43;100126.13;;;10.21;84.50
52855;BME280;38719;51.418;7.286;2023-02-19T06:50:11;100126.66;;;10.07;85.01
52855;BME280;38719;51.418;7.286;2023-02-19T06:52:40;100139.50;;;9.97;85.96
52855;BME280;38719;51.418;7.286;2023-02-19T06:55:07;100139.28;;;10.02;85.60
52855;BME280;38719;51.418;7.286;2023-02-19T06:57:35;100143.84;;;9.98;85.66
52855;BME280;38719;51.418;7.286;2023-02-19T07:00:03;100153.03;;;9.91;85.63
52855;BME280;38719;51.418;7.286;2023-02-19T07:02:31;100145.97;;;9.90;85.73
52855;BME280;38719;51.418;7.286;2023-02-19T07:04:58;100161.00;;;9.91;85.86
52855;BME280;38719;51.418;7.286;2023-02-19T07:07:26;100159.06;;;9.95;85.88
52855;BME280;38719;51.418;7.286;2023-02-19T07:09:54;100171.28;;;10.00;85.62
52855;BME280;38719;51.418;7.286;2023-02-19T07:12:22;100168.56;;;10.24;84.85
52855;BME280;38719;51.418;7.286;2023-02-19T07:14:49;100177.03;;;10.12;84.92
52855;BME280;38719;51.418;7.286;2023-02-19T07:17:17;100188.31;;;9.95;85.04
52855;BME280;38719;51.418;7.286;2023-02-19T07:19:44;100192.25;;;10.08;84.61
52855;BME280;38719;51.418;7.286;2023-02-19T07:22:12;100185.50;;;9.99;85.55
52855;BME280;38719;51.418;7.286;2023-02-19T07:24:39;100196.72;;;10.08;85.40
52855;BME280;38719;51.418;7.286;2023-02-19T07:27:08;100210.84;;;10.10;85.03
52855;BME280;38719;51.418;7.286;2023-02-19T07:29:36;100217.34;;;10.01;85.51
52855;BME280;38719;51.418;7.286;2023-02-19T07:32:03;100208.75;;;9.94;85.91
52855;BME280;38719;51.418;7.286;2023-02-19T07:34:31;100217.19;;;10.06;85.73
52855;BME280;38719;51.418;7.286;2023-02-19T07:36:58;100221.25;;;9.92;84.96
52855;BME280;38719;51.418;7.286;2023-02-19T07:39:26;100232.13;;;9.86;85.47
52855;BME280;38719;51.418;7.286;2023-02-19T07:41:53;100231.16;;;9.40;87.42
52855;BME280;38719;51.418;7.286;2023-02-19T07:44:22;100236.13;;;9.49;87.84
52855;BME280;38719;51.418;7.286;2023-02-19T07:46:50;100239.78;;;9.70;88.27
52855;BME280;38719;51.418;7.286;2023-02-19T07:49:17;100248.50;;;9.75;86.68
52855;BME280;38719;51.418;7.286;2023-02-19T07:51:45;100248.81;;;9.90;86.52
52855;BME280;38719;51.418;7.286;2023-02-19T07:54:12;100248.34;;;10.04;86.03
52855;BME280;38719;51.418;7.286;2023-02-19T07:56:40;100245.31;;;9.89;86.17
52855;BME280;38719;51.418;7.286;2023-02-19T07:59:07;100240.13;;;10.10;85.48
52855;BME280;38719;51.418;7.286;2023-02-19T08:01:37;100250.03;;;10.05;85.09
52855;BME280;38719;51.418;7.286;2023-02-19T08:04:22;100258.84;;;10.07;85.71
52855;BME280;38719;51.418;7.286;2023-02-19T08:06:51;100257.78;;;9.87;85.85
52855;BME280;38719;51.418;7.286;2023-02-19T08:09:19;100265.94;;;9.82;86.71
52855;BME280;38719;51.418;7.286;2023-02-19T08:11:47;100263.41;;;10.03;86.20
52855;BME280;38719;51.418;7.286;2023-02-19T08:14:32;100280.25;;;10.04;85.63
52855;BME280;38719;51.418;7.286;2023-02-19T08:17:01;100291.53;;;10.10;85.02
52855;BME280;38719;51.418;7.286;2023-02-19T08:19:30;100290.97;;;9.77;85.05
52855;BME280;38719;51.418;7.286;2023-02-19T08:22:00;100290.06;;;9.78;86.04
52855;BME280;38719;51.418;7.286;2023-02-19T08:24:28;100283.47;;;9.88;85.63
52855;BME280;38719;51.418;7.286;2023-02-19T08:26:59;100281.50;;;9.93;85.09
52855;BME280;38719;51.418;7.286;2023-02-19T08:29:29;100297.25;;;9.99;85.40
52855;BME280;38719;51.418;7.286;2023-02-19T08:31:56;100293.41;;;9.83;84.95
52855;BME280;38719;51.418;7.286;2023-02-19T08:34:27;100292.97;;;9.95;85.01
52855;BME280;38719;51.418;7.286;2023-02-19T08:36:57;100292.59;;;10.05;84.61
52855;BME280;38719;51.418;7.286;2023-02-19T08:39:26;100288.34;;;10.24;83.78
52855;BME280;38719;51.418;7.286;2023-02-19T08:41:53;100293.09;;;10.16;83.88
52855;BME280;38719;51.418;7.286;2023-02-19T08:44:21;100307.41;;;10.36;83.45
52855;BME280;38719;51.418;7.286;2023-02-19T08:46:48;100298.97;;;10.24;83.23
52855;BME280;38719;51.418;7.286;2023-02-19T08:49:16;100304.63;;;10.40;83.22
52855;BME280;38719;51.418;7.286;2023-02-19T08:51:44;100306.88;;;10.51;82.67
52855;BME280;38719;51.418;7.286;2023-02-19T08:54:12;100297.38;;;10.44;83.22
52855;BME280;38719;51.418;7.286;2023-02-19T08:56:39;100302.53;;;10.25;83.93
52855;BME280;38719;51.418;7.286;2023-02-19T08:59:07;100309.06;;;10.16;83.82
52855;BME280;38719;51.418;7.286;2023-02-19T09:01:34;100306.44;;;10.14;84.58
52855;BME280;38719;51.418;7.286;2023-02-19T09:04:02;100306.19;;;10.22;83.75
52855;BME280;38719;51.418;7.286;2023-02-19T09:06:29;100310.50;;;10.25;83.51
52855;BME280;38719;51.418;7.286;2023-02-19T09:08:58;100311.50;;;10.22;83.22
52855;BME280;38719;51.418;7.286;2023-02-19T09:11:26;100316.09;;;10.17;84.07
52855;BME280;38719;51.418;7.286;2023-02-19T09:13:55;100317.22;;;10.11;83.19
52855;BME280;38719;51.418;7.286;2023-02-19T09:16:22;100316.22;;;10.14;83.47
52855;BME280;38719;51.418;7.286;2023-02-19T09:18:50;100332.06;;;10.17;83.55
52855;BME280;38719;51.418;7.286;2023-02-19T09:21:17;100341.16;;;10.11;83.40
52855;BME280;38719;51.418;7.286;2023-02-19T09:23:45;100320.63;;;10.15;83.76
52855;BME280;38719;51.418;7.286;2023-02-19T09:26:14;100334.78;;;10.41;82.84
52855;BME280;38719;51.418;7.286;2023-02-19T09:28:41;100348.09;;;10.41;82.80
52855;BME280;38719;51.418;7.286;2023-02-19T09:31:11;100349.25;;;10.08;84.00
52855;BME280;38719;51.418;7.286;2023-02-19T09:33:41;100352.53;;;9.91;84.40
52855;BME280;38719;51.418;7.286;2023-02-19T09:36:09;100371.44;;;10.07;84.20
52855;BME280;38719;51.418;7.286;2023-02-19T09:38:37;100353.84;;;10.28;83.72
52855;BME280;38719;51.418;7.286;2023-02-19T09:41:08;100359.50;;;10.19;82.86
52855;BME280;38719;51.418;7.286;2023-02-19T09:43:38;100362.53;;;10.10;83.45
52855;BME280;38719;51.418;7.286;2023-02-19T09:46:11;100368.19;;;10.24;83.45
52855;BME280;38719;51.418;7.286;2023-02-19T09:48:41;100371.00;;;10.45;82.79
52855;BME280;38719;51.418;7.286;2023-02-19T09:51:09;100373.38;;;10.53;83.27
52855;BME280;38719;51.418;7.286;2023-02-19T09:53:41;100379.81;;;10.22;83.55
52855;BME280;38719;51.418;7.286;2023-02-19T09:56:10;100394.81;;;10.50;82.70
52855;BME280;38719;51.418;7.286;2023-02-19T09:58:45;100388.81;;;10.67;82.27
52855;BME280;38719;51.418;7.286;2023-02-19T10:01:14;100393.22;;;10.68;81.99
52855;BME280;38719;51.418;7.286;2023-02-19T10:03:43;100403.53;;;10.77;81.19
52855;BME280;38719;51.418;7.286;2023-02-19T10:06:17;100399.53;;;10.65;82.11
52855;BME280;38719;51.418;7.286;2023-02-19T10:08:47;100406.09;;;10.56;81.80
52855;BME280;38719;51.418;7.286;2023-02-19T10:11:16;100419.75;;;10.71;80.98
52855;BME280;38719;51.418;7.286;2023-02-19T10:13:48;100421.38;;;10.75;80.81
52855;BME280;38719;51.418;7.286;2023-02-19T10:16:23;100438.00;;;10.82;81.24
52855;BME280;38719;51.418;7.286;2023-02-19T10:18:51;100441.81;;;10.74;81.33
52855;BME280;38719;51.418;7.286;2023-02-19T10:21:21;100440.63;;;10.58;82.23
52855;BME280;38719;51.418;7.286;2023-02-19T10:23:52;100444.25;;;10.80;82.29
52855;BME280;38719;51.418;7.286;2023-02-19T10:26:21;100434.28;;;10.86;81.51
52855;BME280;38719;51.418;7.286;2023-02-19T10:28:50;100436.63;;;10.93;80.88
52855;BME280;38719;51.418;7.286;2023-02-19T10:31:22;100454.47;;;10.91;80.87
52855;BME280;38719;51.418;7.286;2023-02-19T10:33:51;100471.22;;;10.95;80.05
52855;BME280;38719;51.418;7.286;2023-02-19T10:36:24;100476.50;;;10.96;80.50
52855;BME280;38719;51.418;7.286;2023-02-19T10:38:58;100475.84;;;11.13;81.00
52855;BME280;38719;51.418;7.286;2023-02-19T10:41:27;100468.28;;;11.03;80.30
52855;BME280;38719;51.418;7.286;2023-02-19T10:44:01;100464.97;;;10.96;80.47
52855;BME280;38719;51.418;7.286;2023-02-19T10:46:30;100480.16;;;10.94;81.09
52855;BME280;38719;51.418;7.286;2023-02-19T10:49:01;100477.19;;;11.02;80.77
52855;BME280;38719;51.418;7.286;2023-02-19T10:51:32;100467.16;;;11.08;79.09
52855;BME280;38719;51.418;7.286;2023-02-19T10:54:05;100468.09;;;10.84;79.55
52855;BME280;38719;51.418;7.286;2023-02-19T10:56:33;100470.47;;;10.91;78.46
52855;BME280;38719;51.418;7.286;2023-02-19T10:59:23;100479.44;;;11.12;78.09
52855;BME280;38719;51.418;7.286;2023-02-19T11:01:55;100501.25;;;11.22;77.84
52855;BME280;38719;51.418;7.286;2023-02-19T11:04:24;100500.34;;;11.00;77.31
52855;BME280;38719;51.418;7.286;2023-02-19T11:06:52;100499.53;;;10.97;78.17
52855;BME280;38719;51.418;7.286;2023-02-19T11:09:25;100487.31;;;11.16;78.00
52855;BME280;38719;51.418;7.286;2023-02-19T11:11:54;100497.66;;;11.23;77.35
52855;BME280;38719;51.418;7.286;2023-02-19T11:14:25;100485.03;;;11.06;77.99
52855;BME280;38719;51.418;7.286;2023-02-19T11:16:55;100495.19;;;11.41;77.32
52855;BME280;38719;51.418;7.286;2023-02-19T11:19:27;100496.50;;;11.31;77.14
52855;BME280;38719;51.418;7.286;2023-02-19T11:21:55;100504.06;;;11.19;77.72
52855;BME280;38719;51.418;7.286;2023-02-19T11:24:29;100496.88;;;11.21;77.28
52855;BME280;38719;51.418;7.286;2023-02-19T11:27:00;100497.25;;;11.34;77.33
52855;BME280;38719;51.418;7.286;2023-02-19T11:29:30;100495.09;;;11.44;77.62
52855;BME280;38719;51.418;7.286;2023-02-19T11:32:22;100495.09;;;11.44;77.22
52855;BME280;38719;51.418;7.286;2023-02-19T11:34:50;100497.81;;;11.42;76.71
52855;BME280;38719;51.418;7.286;2023-02-19T11:37:20;100491.81;;;11.37;77.42
52855;BME280;38719;51.418;7.286;2023-02-19T11:39:49;100507.19;;;11.53;76.58
52855;BME280;38719;51.418;7.286;2023-02-19T11:42:31;100495.44;;;11.79;75.64
52855;BME280;38719;51.418;7.286;2023-02-19T11:45:18;100483.84;;;11.80;74.94
52855;BME280;38719;51.418;7.286;2023-02-19T11:48:02;100473.53;;;11.93;75.04
52855;BME280;38719;51.418;7.286;2023-02-19T11:50:45;100474.91;;;11.81;75.28
52855;BME280;38719;51.418;7.286;2023-02-19T11:53:21;100468.97;;;11.74;74.58
52855;BME280;38719;51.418;7.286;2023-02-19T11:56:01;100466.91;;;11.81;74.58
52855;BME280;38719;51.418;7.286;2023-02-19T11:58:50;100468.75;;;11.79;74.18
52855;BME280;38719;51.418;7.286;2023-02-19T12:01:22;100465.41;;;11.96;73.81
52855;BME280;38719;51.418;7.286;2023-02-19T12:04:06;100461.59;;;11.59;74.44
52855;BME280;38719;51.418;7.286;2023-02-19T12:06:43;100471.16;;;11.65;74.90
52855;BME280;38719;51.418;7.286;2023-02-19T12:09:35;100459.50;;;11.88;74.18
52855;BME280;38719;51.418;7.286;2023-02-19T12:12:13;100473.59;;;11.69;73.22
52855;BME280;38719;51.418;7.286;2023-02-19T12:15:00;100471.31;;;11.82;73.41
52855;BME280;38719;51.418;7.286;2023-02-19T12:17:55;100464.31;;;11.80;74.35
52855;BME280;38719;51.418;7.286;2023-02-19T12:20:33;100489.41;;;11.31;74.19
52855;BME280;38719;51.418;7.286;2023-02-19T12:23:35;100504.50;;;11.31;74.75
52855;BME280;38719;51.418;7.286;2023-02-19T12:26:07;100507.81;;;11.37;75.37
52855;BME280;38719;51.418;7.286;2023-02-19T12:28:54;100498.81;;;11.40;74.54
52855;BME280;38719;51.418;7.286;2023-02-19T12:31:37;100497.88;;;11.19;73.57
52855;BME280;38719;51.418;7.286;2023-02-19T12:37:31;100495.41;;;11.58;74.95
52855;BME280;38719;51.418;7.286;2023-02-19T12:40:16;100499.78;;;11.59;73.74
52855;BME280;38719;51.418;7.286;2023-02-19T12:42:56;100493.84;;;11.75;72.45
52855;BME280;38719;51.418;7.286;2023-02-19T12:45:30;100501.72;;;11.78;72.66
52855;BME280;38719;51.418;7.286;2023-02-19T12:48:05;100493.09;;;11.71;72.51
52855;BME280;38719;51.418;7.286;2023-02-19T12:50:36;100501.66;;;11.57;74.66
52855;BME280;38719;51.418;7.286;2023-02-19T12:53:22;100503.28;;;11.61;74.25
52855;BME280;38719;51.418;7.286;2023-02-19T12:55:51;100507.25;;;11.73;73.21
52855;BME280;38719;51.418;7.286;2023-02-19T12:58:25;100499.88;;;11.58;73.83
52855;BME280;38719;51.418;7.286;2023-02-19T13:00:55;100511.91;;;11.46;73.75
52855;BME280;38719;51.418;7.286;2023-02-19T13:03:30;100520.41;;;11.34;74.51
52855;BME280;38719;51.418;7.286;2023-02-19T13:06:03;100514.56;;;11.24;74.89
52855;BME280;38719;51.418;7.286;2023-02-19T13:08:39;100526.78;;;11.06;74.62
52855;BME280;38719;51.418;7.286;2023-02-19T13:11:32;100520.84;;;10.74;76.27
52855;BME280;38719;51.418;7.286;2023-02-19T13:14:05;100523.06;;;10.36;77.49
52855;BME280;38719;51.418;7.286;2023-02-19T13:16:43;100521.28;;;10.61;76.93
52855;BME280;38719;51.418;7.286;2023-02-19T13:19:12;100524.34;;;10.76;76.75
52855;BME280;38719;51.418;7.286;2023-02-19T13:21:41;100521.75;;;10.73;74.87